createdAt,value
2018-06-13T00:00:42.317Z,0.00
2018-06-13T00:01:42.284Z,0.00
2018-06-13T00:02:42.254Z,0.00
2018-06-13T00:03:42.233Z,0.00
2018-06-13T00:04:42.202Z,0.00
2018-06-13T00:05:42.176Z,0.00
2018-06-13T00:06:42.168Z,0.00
2018-06-13T00:07:42.119Z,0.00
2018-06-13T00:08:42.087Z,0.00
2018-06-13T00:09:42.093Z,0.00
2018-06-13T00:10:42.037Z,0.00
2018-06-13T00:11:42.005Z,0.00
2018-06-13T00:12:41.983Z,0.00
2018-06-13T00:13:41.956Z,0.00
2018-06-13T00:14:41.929Z,0.00
2018-06-13T00:15:41.906Z,0.00
2018-06-13T00:16:41.870Z,0.00
2018-06-13T00:17:41.845Z,0.00
2018-06-13T00:18:41.896Z,0.00
2018-06-13T00:19:41.794Z,0.00
2018-06-13T00:20:41.763Z,0.00
2018-06-13T00:21:41.771Z,0.00
2018-06-13T00:22:41.709Z,0.00
2018-06-13T00:23:41.683Z,0.00
2018-06-13T00:24:41.658Z,0.00
2018-06-13T00:25:41.636Z,0.00
2018-06-13T00:26:41.610Z,0.00
2018-06-13T00:27:41.588Z,0.00
2018-06-13T00:28:41.542Z,0.00
2018-06-13T00:29:41.518Z,0.00
2018-06-13T00:30:41.514Z,0.00
2018-06-13T00:31:41.471Z,0.00
2018-06-13T00:32:41.438Z,0.00
2018-06-13T00:33:41.433Z,0.00
2018-06-13T00:34:41.394Z,0.00
2018-06-13T00:35:41.356Z,0.00
2018-06-13T00:36:41.330Z,0.00
2018-06-13T00:37:41.304Z,0.00
2018-06-13T00:38:41.274Z,0.00
2018-06-13T00:39:41.261Z,0.00
2018-06-13T00:40:41.225Z,0.00
2018-06-13T00:41:41.190Z,0.00
2018-06-13T00:42:41.181Z,0.00
2018-06-13T00:43:41.131Z,0.00
2018-06-13T00:44:41.113Z,0.00
2018-06-13T00:45:41.090Z,0.00
2018-06-13T00:46:41.054Z,0.00
2018-06-13T00:47:41.038Z,0.00
2018-06-13T00:48:41.012Z,0.00
2018-06-13T00:49:40.975Z,0.00
2018-06-13T00:50:40.951Z,0.00
2018-06-13T00:51:40.929Z,0.00
2018-06-13T00:52:40.887Z,0.00
2018-06-13T00:53:40.867Z,0.00
2018-06-13T00:54:40.849Z,0.00
2018-06-13T00:55:40.802Z,0.00
2018-06-13T00:56:40.793Z,0.00
2018-06-13T00:57:40.760Z,0.00
2018-06-13T00:58:40.738Z,0.00
2018-06-13T00:59:40.708Z,0.00
2018-06-13T01:00:40.671Z,0.00
2018-06-13T01:01:40.647Z,0.00
2018-06-13T01:02:40.610Z,0.00
2018-06-13T01:03:40.594Z,0.00
2018-06-13T01:04:40.567Z,0.00
2018-06-13T01:05:40.536Z,0.00
2018-06-13T01:06:40.517Z,0.00
2018-06-13T01:07:40.494Z,0.00
2018-06-13T01:08:40.462Z,0.00
2018-06-13T01:09:40.442Z,0.00
2018-06-13T01:10:40.407Z,0.00
2018-06-13T01:11:40.385Z,0.00
2018-06-13T01:12:40.353Z,0.00
2018-06-13T01:13:40.338Z,0.00
2018-06-13T01:14:40.294Z,0.00
2018-06-13T01:15:40.275Z,0.00
2018-06-13T01:16:40.234Z,0.00
2018-06-13T01:17:40.200Z,0.00
2018-06-13T01:18:40.208Z,0.00
2018-06-13T01:19:40.157Z,0.00
2018-06-13T01:20:40.134Z,0.00
2018-06-13T01:21:40.119Z,0.00
2018-06-13T01:22:40.065Z,0.00
2018-06-13T01:23:40.048Z,0.00
2018-06-13T01:24:40.021Z,0.00
2018-06-13T01:25:39.995Z,0.00
2018-06-13T01:26:39.966Z,0.00
2018-06-13T01:27:39.955Z,0.00
2018-06-13T01:28:39.905Z,0.00
2018-06-13T01:29:39.882Z,0.00
2018-06-13T01:30:39.857Z,0.00
2018-06-13T01:31:39.822Z,0.00
2018-06-13T01:32:39.806Z,0.00
2018-06-13T01:33:39.781Z,0.00
2018-06-13T01:34:39.747Z,0.00
2018-06-13T01:35:39.718Z,0.00
2018-06-13T01:36:39.700Z,0.00
2018-06-13T01:37:39.658Z,0.00
2018-06-13T01:38:39.653Z,0.00
2018-06-13T01:39:39.653Z,0.00
2018-06-13T01:40:39.577Z,0.00
2018-06-13T01:41:39.558Z,0.00
2018-06-13T01:42:39.521Z,0.00
2018-06-13T01:43:39.494Z,0.00
2018-06-13T01:44:39.489Z,0.00
2018-06-13T01:45:39.453Z,0.00
2018-06-13T01:46:39.415Z,0.00
2018-06-13T01:47:39.398Z,0.00
2018-06-13T01:48:39.375Z,0.00
2018-06-13T01:49:39.331Z,0.00
2018-06-13T01:50:39.309Z,0.00
2018-06-13T01:51:39.278Z,0.00
2018-06-13T01:52:39.253Z,0.00
2018-06-13T01:53:39.223Z,0.00
2018-06-13T01:54:39.213Z,0.00
2018-06-13T01:55:39.164Z,0.00
2018-06-13T01:56:39.147Z,0.00
2018-06-13T01:57:39.127Z,0.00
2018-06-13T01:58:39.091Z,0.00
2018-06-13T01:59:39.059Z,0.00
2018-06-13T02:00:39.030Z,0.00
2018-06-13T02:01:39.003Z,0.00
2018-06-13T02:02:38.975Z,0.00
2018-06-13T02:03:38.954Z,0.00
2018-06-13T02:04:38.930Z,0.00
2018-06-13T02:05:38.897Z,0.00
2018-06-13T02:06:38.875Z,0.00
2018-06-13T02:07:38.876Z,0.00
2018-06-13T02:08:38.809Z,0.00
2018-06-13T02:09:38.803Z,0.00
2018-06-13T02:10:38.757Z,0.00
2018-06-13T02:11:38.738Z,0.00
2018-06-13T02:12:38.704Z,0.00
2018-06-13T02:13:38.676Z,0.00
2018-06-13T02:14:38.651Z,0.00
2018-06-13T02:15:38.647Z,0.00
2018-06-13T02:16:38.594Z,0.00
2018-06-13T02:17:38.566Z,0.00
2018-06-13T02:18:38.596Z,0.00
2018-06-13T02:19:38.515Z,0.00
2018-06-13T02:20:38.479Z,0.00
2018-06-13T02:21:38.485Z,0.00
2018-06-13T02:22:38.429Z,0.00
2018-06-13T02:23:38.397Z,0.00
2018-06-13T02:24:38.383Z,0.00
2018-06-13T02:25:38.349Z,0.00
2018-06-13T02:26:38.318Z,0.00
2018-06-13T02:27:38.299Z,0.00
2018-06-13T02:28:38.267Z,0.00
2018-06-13T02:29:38.238Z,0.00
2018-06-13T02:30:38.224Z,0.00
2018-06-13T02:31:38.197Z,0.00
2018-06-13T02:32:38.154Z,0.00
2018-06-13T02:33:38.154Z,0.00
2018-06-13T02:34:38.109Z,0.00
2018-06-13T02:35:38.074Z,0.00
2018-06-13T02:36:38.062Z,0.00
2018-06-13T02:37:38.019Z,0.00
2018-06-13T02:38:37.988Z,0.00
2018-06-13T02:39:37.978Z,0.00
2018-06-13T02:40:37.929Z,0.00
2018-06-13T02:41:37.917Z,0.00
2018-06-13T02:42:37.884Z,0.00
2018-06-13T02:43:37.854Z,0.00
2018-06-13T02:44:37.827Z,0.00
2018-06-13T02:45:37.825Z,0.00
2018-06-13T02:46:37.768Z,0.00
2018-06-13T02:47:37.744Z,0.00
2018-06-13T02:48:37.736Z,0.00
2018-06-13T02:49:37.688Z,0.00
2018-06-13T02:50:37.749Z,0.00
2018-06-13T02:51:37.671Z,0.00
2018-06-13T02:52:37.604Z,0.00
2018-06-13T02:53:37.605Z,0.00
2018-06-13T02:54:37.591Z,0.00
2018-06-13T02:55:37.598Z,0.00
2018-06-13T02:56:37.511Z,0.00
2018-06-13T02:57:37.472Z,0.00
2018-06-13T02:58:37.440Z,0.00
2018-06-13T02:59:37.507Z,0.00
2018-06-13T03:00:37.391Z,0.00
2018-06-13T03:01:37.416Z,0.00
2018-06-13T03:02:37.337Z,0.00
2018-06-13T03:03:37.420Z,0.00
2018-06-13T03:04:37.274Z,0.00
2018-06-13T03:05:37.252Z,0.00
2018-06-13T03:06:37.256Z,0.00
2018-06-13T03:07:37.187Z,0.00
2018-06-13T03:08:37.180Z,0.00
2018-06-13T03:09:37.154Z,0.00
2018-06-13T03:10:37.118Z,0.00
2018-06-13T03:11:37.092Z,0.00
2018-06-13T03:12:37.073Z,0.00
2018-06-13T03:13:37.125Z,0.00
2018-06-13T03:14:37.008Z,5.63
2018-06-13T03:15:37.032Z,5.63
2018-06-13T03:16:36.957Z,5.63
2018-06-13T03:17:36.920Z,5.63
2018-06-13T03:18:36.912Z,5.63
2018-06-13T03:19:36.872Z,5.63
2018-06-13T03:20:36.843Z,5.63
2018-06-13T03:21:38.595Z,5.63
2018-06-13T03:22:36.783Z,5.63
2018-06-13T03:23:36.770Z,5.63
2018-06-13T03:24:36.730Z,5.63
2018-06-13T03:25:36.702Z,5.63
2018-06-13T03:26:36.676Z,5.63
2018-06-13T03:27:36.654Z,11.25
2018-06-13T03:28:36.625Z,11.25
2018-06-13T03:29:36.597Z,11.25
2018-06-13T03:30:36.578Z,11.25
2018-06-13T03:31:36.533Z,11.25
2018-06-13T03:32:36.521Z,11.25
2018-06-13T03:33:36.490Z,11.25
2018-06-13T03:34:36.449Z,11.25
2018-06-13T03:35:36.436Z,11.25
2018-06-13T03:36:36.392Z,16.88
2018-06-13T03:37:36.378Z,16.88
2018-06-13T03:38:36.347Z,16.88
2018-06-13T03:39:36.312Z,16.88
2018-06-13T03:40:36.291Z,16.88
2018-06-13T03:41:36.259Z,16.88
2018-06-13T03:42:36.234Z,16.88
2018-06-13T03:43:36.205Z,16.88
2018-06-13T03:44:36.174Z,16.88
2018-06-13T03:45:36.148Z,22.50
2018-06-13T03:46:36.164Z,22.50
2018-06-13T03:47:36.098Z,22.50
2018-06-13T03:48:36.063Z,22.50
2018-06-13T03:49:36.041Z,22.50
2018-06-13T03:50:36.011Z,22.50
2018-06-13T03:51:35.985Z,28.13
2018-06-13T03:52:35.962Z,28.13
2018-06-13T03:53:35.937Z,28.13
2018-06-13T03:54:35.910Z,28.13
2018-06-13T03:55:35.875Z,28.13
2018-06-13T03:56:35.841Z,33.75
2018-06-13T03:57:35.821Z,33.75
2018-06-13T03:58:35.792Z,33.75
2018-06-13T03:59:35.757Z,33.75
2018-06-13T04:00:35.739Z,33.75
2018-06-13T04:01:35.704Z,39.38
2018-06-13T04:02:35.684Z,39.38
2018-06-13T04:03:35.650Z,39.38
2018-06-13T04:04:35.626Z,45.00
2018-06-13T04:05:35.603Z,50.63
2018-06-13T04:06:35.599Z,50.63
2018-06-13T04:07:35.550Z,56.25
2018-06-13T04:08:35.518Z,56.25
2018-06-13T04:09:35.483Z,61.88
2018-06-13T04:10:35.488Z,67.50
2018-06-13T04:11:35.432Z,73.13
2018-06-13T04:12:35.411Z,78.75
2018-06-13T04:13:35.399Z,84.38
2018-06-13T04:14:35.354Z,90.00
2018-06-13T04:15:35.327Z,90.00
2018-06-13T04:16:35.292Z,95.63
2018-06-13T04:17:35.266Z,95.63
2018-06-13T04:18:35.246Z,101.25
2018-06-13T04:19:35.221Z,101.25
2018-06-13T04:20:35.184Z,101.25
2018-06-13T04:21:35.156Z,106.88
2018-06-13T04:22:35.127Z,106.88
2018-06-13T04:23:35.101Z,112.50
2018-06-13T04:24:35.080Z,112.50
2018-06-13T04:25:35.062Z,112.50
2018-06-13T04:26:35.032Z,112.50
2018-06-13T04:27:35.009Z,118.13
2018-06-13T04:28:34.963Z,118.13
2018-06-13T04:29:34.943Z,123.75
2018-06-13T04:30:34.914Z,129.38
2018-06-13T04:31:34.884Z,135.00
2018-06-13T04:32:36.596Z,140.63
2018-06-13T04:33:34.840Z,146.25
2018-06-13T04:34:34.868Z,151.88
2018-06-13T04:35:34.765Z,157.50
2018-06-13T04:36:34.756Z,157.50
2018-06-13T04:37:34.727Z,157.50
2018-06-13T04:38:34.702Z,151.88
2018-06-13T04:39:34.672Z,151.88
2018-06-13T04:40:34.646Z,146.25
2018-06-13T04:41:34.616Z,146.25
2018-06-13T04:42:34.589Z,140.63
2018-06-13T04:43:34.544Z,140.63
2018-06-13T04:44:34.589Z,135.00
2018-06-13T04:45:34.550Z,129.38
2018-06-13T04:46:34.463Z,129.38
2018-06-13T04:47:34.464Z,123.75
2018-06-13T04:48:34.408Z,123.75
2018-06-13T04:49:34.381Z,118.13
2018-06-13T04:50:34.357Z,118.13
2018-06-13T04:51:34.340Z,118.13
2018-06-13T04:52:34.308Z,118.13
2018-06-13T04:53:34.271Z,118.13
2018-06-13T04:54:34.245Z,118.13
2018-06-13T04:55:34.212Z,123.75
2018-06-13T04:56:34.195Z,123.75
2018-06-13T04:57:34.169Z,123.75
2018-06-13T04:58:34.135Z,123.75
2018-06-13T04:59:34.111Z,129.38
2018-06-13T05:00:34.092Z,129.38
2018-06-13T05:01:34.063Z,129.38
2018-06-13T05:02:34.028Z,135.00
2018-06-13T05:03:33.998Z,135.00
2018-06-13T05:04:33.974Z,140.63
2018-06-13T05:05:33.945Z,146.25
2018-06-13T05:06:33.916Z,146.25
2018-06-13T05:07:33.901Z,146.25
2018-06-13T05:08:33.868Z,146.25
2018-06-13T05:09:33.838Z,146.25
2018-06-13T05:10:33.813Z,146.25
2018-06-13T05:11:33.781Z,146.25
2018-06-13T05:12:33.756Z,140.63
2018-06-13T05:13:33.755Z,151.88
2018-06-13T05:14:33.696Z,157.50
2018-06-13T05:15:33.692Z,163.13
2018-06-13T05:16:33.653Z,163.13
2018-06-13T05:17:33.675Z,163.13
2018-06-13T05:18:33.645Z,168.75
2018-06-13T05:19:33.618Z,174.38
2018-06-13T05:20:33.594Z,180.00
2018-06-13T05:21:33.558Z,174.38
2018-06-13T05:22:33.561Z,174.38
2018-06-13T05:23:33.512Z,174.38
2018-06-13T05:24:33.485Z,180.00
2018-06-13T05:25:33.453Z,191.25
2018-06-13T05:26:33.441Z,196.88
2018-06-13T05:27:33.352Z,202.50
2018-06-13T05:28:33.420Z,208.13
2018-06-13T05:29:33.349Z,208.13
2018-06-13T05:30:33.312Z,213.75
2018-06-13T05:31:33.301Z,219.38
2018-06-13T05:32:33.265Z,225.00
2018-06-13T05:33:33.222Z,225.00
2018-06-13T05:34:33.271Z,230.63
2018-06-13T05:35:33.167Z,236.25
2018-06-13T05:36:33.099Z,236.25
2018-06-13T05:37:33.070Z,241.88
2018-06-13T05:38:33.038Z,247.50
2018-06-13T05:39:33.019Z,247.50
2018-06-13T05:40:32.990Z,253.13
2018-06-13T05:41:32.960Z,253.13
2018-06-13T05:42:33.010Z,258.75
2018-06-13T05:43:32.909Z,264.38
2018-06-13T05:44:32.933Z,264.38
2018-06-13T05:45:32.900Z,270.00
2018-06-13T05:46:32.832Z,275.63
2018-06-13T05:47:32.801Z,275.63
2018-06-13T05:48:32.777Z,281.25
2018-06-13T05:49:32.756Z,286.88
2018-06-13T05:50:32.717Z,292.50
2018-06-13T05:51:32.704Z,298.13
2018-06-13T05:52:32.656Z,298.13
2018-06-13T05:53:32.640Z,303.75
2018-06-13T05:54:32.629Z,303.75
2018-06-13T05:55:32.584Z,309.38
2018-06-13T05:56:32.547Z,309.38
2018-06-13T05:57:32.524Z,315.00
2018-06-13T05:58:32.496Z,320.63
2018-06-13T05:59:32.473Z,326.25
2018-06-13T06:00:32.451Z,326.25
2018-06-13T06:01:32.465Z,331.88
2018-06-13T06:02:32.394Z,337.50
2018-06-13T06:03:32.378Z,337.50
2018-06-13T06:04:32.340Z,343.13
2018-06-13T06:05:32.315Z,343.13
2018-06-13T06:06:35.078Z,348.75
2018-06-13T06:07:32.262Z,348.75
2018-06-13T06:08:32.231Z,354.38
2018-06-13T06:09:32.230Z,360.00
2018-06-13T06:10:32.234Z,365.63
2018-06-13T06:11:35.091Z,365.63
2018-06-13T06:12:32.122Z,371.25
2018-06-13T06:13:32.106Z,371.25
2018-06-13T06:14:32.156Z,371.25
2018-06-13T06:15:32.051Z,371.25
2018-06-13T06:16:32.019Z,371.25
2018-06-13T06:17:31.994Z,382.50
2018-06-13T06:18:31.962Z,382.50
2018-06-13T06:19:31.936Z,382.50
2018-06-13T06:20:31.916Z,388.13
2018-06-13T06:21:31.893Z,393.75
2018-06-13T06:22:31.860Z,399.38
2018-06-13T06:23:31.858Z,399.38
2018-06-13T06:24:31.812Z,410.63
2018-06-13T06:25:31.810Z,405.00
2018-06-13T06:26:31.768Z,410.63
2018-06-13T06:27:31.740Z,416.25
2018-06-13T06:28:31.703Z,421.88
2018-06-13T06:29:31.673Z,421.88
2018-06-13T06:30:31.642Z,433.13
2018-06-13T06:31:31.624Z,427.50
2018-06-13T06:32:31.606Z,427.50
2018-06-13T06:33:31.573Z,421.88
2018-06-13T06:34:31.551Z,421.88
2018-06-13T06:35:31.527Z,410.63
2018-06-13T06:36:31.495Z,405.00
2018-06-13T06:37:33.090Z,405.00
2018-06-13T06:38:31.433Z,416.25
2018-06-13T06:39:31.416Z,421.88
2018-06-13T06:40:31.388Z,427.50
2018-06-13T06:41:31.364Z,427.50
2018-06-13T06:42:31.333Z,438.75
2018-06-13T06:43:31.306Z,455.63
2018-06-13T06:44:31.316Z,466.88
2018-06-13T06:45:31.257Z,466.88
2018-06-13T06:46:31.233Z,472.50
2018-06-13T06:47:31.205Z,478.13
2018-06-13T06:48:31.171Z,489.38
2018-06-13T06:49:31.149Z,511.88
2018-06-13T06:50:31.126Z,517.50
2018-06-13T06:51:31.111Z,511.88
2018-06-13T06:52:31.070Z,506.25
2018-06-13T06:53:31.047Z,500.63
2018-06-13T06:54:31.028Z,495.00
2018-06-13T06:55:31.061Z,483.75
2018-06-13T06:56:30.965Z,478.13
2018-06-13T06:57:30.937Z,489.38
2018-06-13T06:58:30.915Z,495.00
2018-06-13T06:59:30.889Z,500.63
2018-06-13T07:00:30.863Z,506.25
2018-06-13T07:01:30.832Z,511.88
2018-06-13T07:02:30.820Z,528.75
2018-06-13T07:03:30.791Z,528.75
2018-06-13T07:04:30.764Z,528.75
2018-06-13T07:05:30.743Z,528.75
2018-06-13T07:06:30.761Z,528.75
2018-06-13T07:07:30.684Z,528.75
2018-06-13T07:08:30.665Z,534.38
2018-06-13T07:09:30.626Z,540.00
2018-06-13T07:10:30.608Z,540.00
2018-06-13T07:11:30.591Z,540.00
2018-06-13T07:12:30.570Z,534.38
2018-06-13T07:13:30.539Z,534.38
2018-06-13T07:14:30.509Z,528.75
2018-06-13T07:15:30.506Z,523.13
2018-06-13T07:16:30.468Z,506.25
2018-06-13T07:17:30.440Z,483.75
2018-06-13T07:18:30.421Z,478.13
2018-06-13T07:19:30.376Z,466.88
2018-06-13T07:20:30.356Z,438.75
2018-06-13T07:21:30.362Z,444.38
2018-06-13T07:22:32.097Z,438.75
2018-06-13T07:23:30.284Z,444.38
2018-06-13T07:24:30.269Z,450.00
2018-06-13T07:25:30.234Z,444.38
2018-06-13T07:26:30.199Z,450.00
2018-06-13T07:27:30.189Z,483.75
2018-06-13T07:28:30.146Z,500.63
2018-06-13T07:29:33.090Z,517.50
2018-06-13T07:30:30.120Z,534.38
2018-06-13T07:31:30.070Z,545.63
2018-06-13T07:32:30.048Z,556.88
2018-06-13T07:33:30.040Z,568.13
2018-06-13T07:34:29.993Z,568.13
2018-06-13T07:35:29.975Z,573.75
2018-06-13T07:36:29.948Z,573.75
2018-06-13T07:37:29.951Z,568.13
2018-06-13T07:38:29.904Z,568.13
2018-06-13T07:39:29.872Z,579.38
2018-06-13T07:40:29.883Z,601.88
2018-06-13T07:41:29.822Z,607.50
2018-06-13T07:42:29.789Z,607.50
2018-06-13T07:43:29.787Z,613.13
2018-06-13T07:44:29.752Z,618.75
2018-06-13T07:45:29.713Z,630.00
2018-06-13T07:46:29.691Z,630.00
2018-06-13T07:47:29.661Z,624.38
2018-06-13T07:48:29.653Z,613.13
2018-06-13T07:49:29.615Z,613.13
2018-06-13T07:50:29.593Z,613.13
2018-06-13T07:51:29.559Z,613.13
2018-06-13T07:52:29.540Z,590.63
2018-06-13T07:53:29.519Z,568.13
2018-06-13T07:54:31.097Z,562.50
2018-06-13T07:55:29.463Z,590.63
2018-06-13T07:56:29.439Z,618.75
2018-06-13T07:57:29.415Z,601.88
2018-06-13T07:58:29.386Z,568.13
2018-06-13T07:59:29.365Z,540.00
2018-06-13T08:00:29.342Z,517.50
2018-06-13T08:01:29.307Z,489.38
2018-06-13T08:02:29.296Z,461.25
2018-06-13T08:03:29.265Z,421.88
2018-06-13T08:04:29.240Z,388.13
2018-06-13T08:05:29.223Z,343.13
2018-06-13T08:06:29.183Z,292.50
2018-06-13T08:07:29.168Z,253.13
2018-06-13T08:08:29.247Z,241.88
2018-06-13T08:09:29.111Z,236.25
2018-06-13T08:10:29.095Z,241.88
2018-06-13T08:11:29.065Z,247.50
2018-06-13T08:12:29.044Z,253.13
2018-06-13T08:13:29.005Z,275.63
2018-06-13T08:14:28.979Z,292.50
2018-06-13T08:15:28.959Z,292.50
2018-06-13T08:16:28.940Z,286.88
2018-06-13T08:17:28.908Z,275.63
2018-06-13T08:18:28.875Z,270.00
2018-06-13T08:19:28.865Z,270.00
2018-06-13T08:20:28.826Z,292.50
2018-06-13T08:21:28.811Z,298.13
2018-06-13T08:22:28.780Z,303.75
2018-06-13T08:23:28.755Z,315.00
2018-06-13T08:24:28.730Z,326.25
2018-06-13T08:25:28.699Z,326.25
2018-06-13T08:26:28.667Z,326.25
2018-06-13T08:27:28.655Z,320.63
2018-06-13T08:28:28.624Z,315.00
2018-06-13T08:29:28.602Z,303.75
2018-06-13T08:30:28.591Z,286.88
2018-06-13T08:31:28.541Z,281.25
2018-06-13T08:32:28.523Z,281.25
2018-06-13T08:33:28.486Z,281.25
2018-06-13T08:34:28.469Z,292.50
2018-06-13T08:35:28.450Z,298.13
2018-06-13T08:36:28.410Z,303.75
2018-06-13T08:37:28.432Z,320.63
2018-06-13T08:38:28.382Z,331.88
2018-06-13T08:39:28.344Z,320.63
2018-06-13T08:40:28.307Z,320.63
2018-06-13T08:41:28.290Z,326.25
2018-06-13T08:42:28.258Z,326.25
2018-06-13T08:43:28.234Z,331.88
2018-06-13T08:44:28.212Z,326.25
2018-06-13T08:45:28.175Z,326.25
2018-06-13T08:46:28.152Z,326.25
2018-06-13T08:47:28.169Z,331.88
2018-06-13T08:48:28.106Z,360.00
2018-06-13T08:49:28.076Z,388.13
2018-06-13T08:50:28.080Z,427.50
2018-06-13T08:51:28.029Z,433.13
2018-06-13T08:52:27.993Z,438.75
2018-06-13T08:53:27.978Z,444.38
2018-06-13T08:54:27.950Z,450.00
2018-06-13T08:55:27.930Z,444.38
2018-06-13T08:56:27.890Z,483.75
2018-06-13T08:57:27.861Z,500.63
2018-06-13T08:58:27.838Z,528.75
2018-06-13T08:59:27.824Z,540.00
2018-06-13T09:00:27.802Z,528.75
2018-06-13T09:01:27.770Z,506.25
2018-06-13T09:02:27.749Z,489.38
2018-06-13T09:03:27.709Z,466.88
2018-06-13T09:04:27.691Z,433.13
2018-06-13T09:05:27.669Z,416.25
2018-06-13T09:06:27.639Z,405.00
2018-06-13T09:07:27.612Z,399.38
2018-06-13T09:08:27.584Z,382.50
2018-06-13T09:09:27.587Z,371.25
2018-06-13T09:10:27.527Z,371.25
2018-06-13T09:11:27.504Z,354.38
2018-06-13T09:12:27.489Z,343.13
2018-06-13T09:13:27.454Z,343.13
2018-06-13T09:14:27.448Z,343.13
2018-06-13T09:15:27.412Z,348.75
2018-06-13T09:16:27.377Z,348.75
2018-06-13T09:17:27.348Z,360.00
2018-06-13T09:18:27.331Z,388.13
2018-06-13T09:19:27.298Z,410.63
2018-06-13T09:20:27.277Z,433.13
2018-06-13T09:21:27.254Z,455.63
2018-06-13T09:22:27.278Z,483.75
2018-06-13T09:23:29.125Z,517.50
2018-06-13T09:24:27.173Z,551.25
2018-06-13T09:25:29.124Z,579.38
2018-06-13T09:26:27.128Z,607.50
2018-06-13T09:27:27.098Z,630.00
2018-06-13T09:28:27.069Z,652.50
2018-06-13T09:29:27.036Z,691.88
2018-06-13T09:30:27.011Z,725.63
2018-06-13T09:31:26.988Z,759.38
2018-06-13T09:32:26.966Z,776.25
2018-06-13T09:33:26.946Z,798.75
2018-06-13T09:34:26.921Z,815.63
2018-06-13T09:35:26.892Z,815.63
2018-06-13T09:36:26.863Z,815.63
2018-06-13T09:37:26.872Z,810.00
2018-06-13T09:38:26.812Z,810.00
2018-06-13T09:39:26.789Z,810.00
2018-06-13T09:40:26.759Z,832.50
2018-06-13T09:41:26.747Z,855.00
2018-06-13T09:42:26.716Z,883.13
2018-06-13T09:43:26.683Z,911.25
2018-06-13T09:44:26.669Z,945.00
2018-06-13T09:45:26.637Z,967.50
2018-06-13T09:46:26.613Z,984.38
2018-06-13T09:47:26.599Z,1006.88
2018-06-13T09:48:26.559Z,1012.50
2018-06-13T09:49:26.539Z,1001.25
2018-06-13T09:50:26.523Z,961.88
2018-06-13T09:51:26.497Z,894.38
2018-06-13T09:52:26.478Z,810.00
2018-06-13T09:53:26.456Z,736.88
2018-06-13T09:54:28.131Z,680.63
2018-06-13T09:55:26.395Z,630.00
2018-06-13T09:56:26.371Z,573.75
2018-06-13T09:57:26.348Z,534.38
2018-06-13T09:58:26.324Z,489.38
2018-06-13T09:59:26.407Z,450.00
2018-06-13T10:00:26.281Z,421.88
2018-06-13T10:01:26.269Z,410.63
2018-06-13T10:02:28.131Z,416.25
2018-06-13T10:03:26.215Z,433.13
2018-06-13T10:04:26.188Z,450.00
2018-06-13T10:05:26.165Z,438.75
2018-06-13T10:06:26.144Z,427.50
2018-06-13T10:07:26.107Z,393.75
2018-06-13T10:08:26.076Z,365.63
2018-06-13T10:09:26.046Z,343.13
2018-06-13T10:10:26.033Z,326.25
2018-06-13T10:11:26.004Z,320.63
2018-06-13T10:12:25.972Z,343.13
2018-06-13T10:13:25.944Z,371.25
2018-06-13T10:14:25.920Z,405.00
2018-06-13T10:15:25.899Z,450.00
2018-06-13T10:16:25.881Z,500.63
2018-06-13T10:17:25.860Z,534.38
2018-06-13T10:18:25.823Z,556.88
2018-06-13T10:19:25.820Z,573.75
2018-06-13T10:20:25.772Z,590.63
2018-06-13T10:21:25.748Z,601.88
2018-06-13T10:22:25.722Z,618.75
2018-06-13T10:23:25.693Z,635.63
2018-06-13T10:24:25.682Z,641.25
2018-06-13T10:25:25.693Z,618.75
2018-06-13T10:26:25.621Z,585.00
2018-06-13T10:27:25.603Z,545.63
2018-06-13T10:28:25.583Z,506.25
2018-06-13T10:29:25.548Z,489.38
2018-06-13T10:30:25.524Z,472.50
2018-06-13T10:31:25.505Z,466.88
2018-06-13T10:32:25.468Z,466.88
2018-06-13T10:33:25.447Z,478.13
2018-06-13T10:34:25.436Z,478.13
2018-06-13T10:35:25.393Z,472.50
2018-06-13T10:36:25.377Z,461.25
2018-06-13T10:37:25.353Z,433.13
2018-06-13T10:38:25.327Z,416.25
2018-06-13T10:39:25.303Z,388.13
2018-06-13T10:40:25.275Z,360.00
2018-06-13T10:41:25.246Z,348.75
2018-06-13T10:42:25.226Z,326.25
2018-06-13T10:43:25.222Z,315.00
2018-06-13T10:44:25.176Z,292.50
2018-06-13T10:45:25.148Z,298.13
2018-06-13T10:46:25.132Z,303.75
2018-06-13T10:47:25.092Z,320.63
2018-06-13T10:48:25.084Z,343.13
2018-06-13T10:49:25.044Z,360.00
2018-06-13T10:50:25.022Z,343.13
2018-06-13T10:51:25.022Z,331.88
2018-06-13T10:52:24.967Z,320.63
2018-06-13T10:53:24.941Z,326.25
2018-06-13T10:54:24.915Z,331.88
2018-06-13T10:55:24.886Z,337.50
2018-06-13T10:56:24.874Z,337.50
2018-06-13T10:57:26.642Z,343.13
2018-06-13T10:58:24.824Z,354.38
2018-06-13T10:59:24.802Z,376.88
2018-06-13T11:00:24.764Z,399.38
2018-06-13T11:01:24.740Z,405.00
2018-06-13T11:02:24.722Z,405.00
2018-06-13T11:03:24.720Z,410.63
2018-06-13T11:04:24.664Z,416.25
2018-06-13T11:05:24.651Z,421.88
2018-06-13T11:06:24.607Z,450.00
2018-06-13T11:07:24.585Z,466.88
2018-06-13T11:08:24.585Z,495.00
2018-06-13T11:09:24.536Z,517.50
2018-06-13T11:10:24.511Z,556.88
2018-06-13T11:11:24.487Z,601.88
2018-06-13T11:12:24.451Z,635.63
2018-06-13T11:13:24.431Z,675.00
2018-06-13T11:14:24.423Z,714.38
2018-06-13T11:15:24.382Z,765.00
2018-06-13T11:16:24.359Z,810.00
2018-06-13T11:17:24.333Z,849.38
2018-06-13T11:18:24.312Z,883.13
2018-06-13T11:19:24.277Z,905.63
2018-06-13T11:20:24.305Z,939.38
2018-06-13T11:21:24.245Z,967.50
2018-06-13T11:22:24.205Z,995.63
2018-06-13T11:23:24.192Z,1046.25
2018-06-13T11:24:24.150Z,1096.88
2018-06-13T11:25:24.165Z,1085.63
2018-06-13T11:26:24.116Z,1080.00
2018-06-13T11:27:24.082Z,1051.88
2018-06-13T11:28:24.067Z,1006.88
2018-06-13T11:29:24.034Z,984.38
2018-06-13T11:30:24.013Z,950.63
2018-06-13T11:31:24.006Z,911.25
2018-06-13T11:32:23.966Z,798.75
2018-06-13T11:33:23.940Z,725.63
2018-06-13T11:34:25.654Z,641.25
2018-06-13T11:35:23.892Z,545.63
2018-06-13T11:36:23.861Z,489.38
2018-06-13T11:37:23.845Z,466.88
2018-06-13T11:38:23.819Z,444.38
2018-06-13T11:39:23.792Z,427.50
2018-06-13T11:40:23.793Z,399.38
2018-06-13T11:41:23.765Z,382.50
2018-06-13T11:42:23.726Z,343.13
2018-06-13T11:43:26.654Z,315.00
2018-06-13T11:44:23.667Z,281.25
2018-06-13T11:45:23.643Z,253.13
2018-06-13T11:46:23.622Z,225.00
2018-06-13T11:47:23.604Z,213.75
2018-06-13T11:48:23.568Z,208.13
2018-06-13T11:49:23.556Z,208.13
2018-06-13T11:50:23.520Z,208.13
2018-06-13T11:51:23.492Z,208.13
2018-06-13T11:52:23.479Z,219.38
2018-06-13T11:53:23.458Z,225.00
2018-06-13T11:54:23.425Z,247.50
2018-06-13T11:55:23.400Z,281.25
2018-06-13T11:56:23.372Z,309.38
2018-06-13T11:57:23.345Z,343.13
2018-06-13T11:58:23.320Z,376.88
2018-06-13T11:59:23.291Z,405.00
2018-06-13T12:00:23.306Z,438.75
2018-06-13T12:01:23.303Z,472.50
2018-06-13T12:02:23.220Z,506.25
2018-06-13T12:03:23.201Z,551.25
2018-06-13T12:04:23.171Z,590.63
2018-06-13T12:05:23.145Z,635.63
2018-06-13T12:06:23.152Z,691.88
2018-06-13T12:07:23.093Z,748.13
2018-06-13T12:08:23.065Z,815.63
2018-06-13T12:09:23.039Z,883.13
2018-06-13T12:10:23.015Z,978.75
2018-06-13T12:11:22.994Z,1040.63
2018-06-13T12:12:22.970Z,1170.00
2018-06-13T12:13:22.941Z,2030.63
2018-06-13T12:14:22.921Z,2345.63
2018-06-13T12:15:22.897Z,4100.63
2018-06-13T12:16:22.868Z,4162.50
2018-06-13T12:17:22.841Z,1636.88
2018-06-13T12:18:22.820Z,1603.13
2018-06-13T12:19:22.799Z,1642.50
2018-06-13T12:20:22.766Z,1625.63
2018-06-13T12:21:22.750Z,1884.38
2018-06-13T12:22:22.731Z,3577.50
2018-06-13T12:23:22.706Z,995.63
2018-06-13T12:24:22.688Z,900.00
2018-06-13T12:25:23.287Z,826.88
2018-06-13T12:26:22.644Z,798.75
2018-06-13T12:27:22.622Z,736.88
2018-06-13T12:28:22.603Z,697.50
2018-06-13T12:29:22.576Z,607.50
2018-06-13T12:30:22.575Z,556.88
2018-06-13T12:31:22.535Z,528.75
2018-06-13T12:32:22.550Z,511.88
2018-06-13T12:33:22.530Z,517.50
2018-06-13T12:34:22.501Z,534.38
2018-06-13T12:35:22.435Z,556.88
2018-06-13T12:36:22.420Z,545.63
2018-06-13T12:37:22.428Z,545.63
2018-06-13T12:38:22.370Z,562.50
2018-06-13T12:39:22.370Z,585.00
2018-06-13T12:40:22.319Z,607.50
2018-06-13T12:41:22.309Z,652.50
2018-06-13T12:42:22.274Z,720.00